sensor_id;sensor_type;location;lat;lon;timestamp;pressure;altitude;pressure_sealevel;temperature;humidity
27685;BME280;46113;50.130;8.526;2024-03-25T00:00:47;98135.75;;;5.73;83.31
27685;BME280;46113;50.130;8.526;2024-03-25T00:03:13;98133.91;;;5.51;81.49
27685;BME280;46113;50.130;8.526;2024-03-25T00:05:39;98136.66;;;5.72;83.10
27685;BME280;46113;50.130;8.526;2024-03-25T00:08:06;98134.53;;;5.57;80.55
27685;BME280;46113;50.130;8.526;2024-03-25T00:10:33;98135.97;;;5.66;82.11
27685;BME280;46113;50.130;8.526;2024-03-25T00:12:59;98135.75;;;5.73;82.35
27685;BME280;46113;50.130;8.526;2024-03-25T00:15:26;98141.03;;;5.71;83.75
27685;BME280;46113;50.130;8.526;2024-03-25T00:17:51;98138.44;;;5.71;82.71
27685;BME280;46113;50.130;8.526;2024-03-25T00:20:17;98137.44;;;5.75;83.69
27685;BME280;46113;50.130;8.526;2024-03-25T00:22:43;98140.59;;;5.83;84.17
27685;BME280;46113;50.130;8.526;2024-03-25T00:25:09;98145.53;;;5.40;84.26
27685;BME280;46113;50.130;8.526;2024-03-25T00:27:35;98130.97;;;5.60;83.79
27685;BME280;46113;50.130;8.526;2024-03-25T00:30:01;98150.16;;;5.57;83.90
27685;BME280;46113;50.130;8.526;2024-03-25T00:32:28;98141.09;;;5.69;83.58
27685;BME280;46113;50.130;8.526;2024-03-25T00:34:54;98156.28;;;5.56;81.46
27685;BME280;46113;50.130;8.526;2024-03-25T00:37:19;98144.38;;;5.49;80.42
27685;BME280;46113;50.130;8.526;2024-03-25T00:39:45;98143.91;;;5.63;82.12
27685;BME280;46113;50.130;8.526;2024-03-25T00:42:11;98142.31;;;5.59;82.36
27685;BME280;46113;50.130;8.526;2024-03-25T00:44:38;98154.47;;;5.59;82.57
27685;BME280;46113;50.130;8.526;2024-03-25T00:47:03;98165.75;;;5.59;83.06
27685;BME280;46113;50.130;8.526;2024-03-25T00:49:29;98166.84;;;5.52;84.45
27685;BME280;46113;50.130;8.526;2024-03-25T00:51:55;98168.59;;;5.24;85.24
27685;BME280;46113;50.130;8.526;2024-03-25T00:54:21;98172.38;;;5.42;85.97
27685;BME280;46113;50.130;8.526;2024-03-25T00:56:49;98158.81;;;5.33;86.35
27685;BME280;46113;50.130;8.526;2024-03-25T00:59:17;98159.91;;;5.25;85.83
27685;BME280;46113;50.130;8.526;2024-03-25T01:01:43;98159.84;;;5.27;86.33
27685;BME280;46113;50.130;8.526;2024-03-25T01:04:09;98156.41;;;5.26;86.59
27685;BME280;46113;50.130;8.526;2024-03-25T01:06:35;98154.28;;;5.38;87.04
27685;BME280;46113;50.130;8.526;2024-03-25T01:09:01;98160.00;;;5.22;88.21
27685;BME280;46113;50.130;8.526;2024-03-25T01:11:27;98163.34;;;5.26;87.84
27685;BME280;46113;50.130;8.526;2024-03-25T01:13:53;98156.63;;;5.20;87.36
27685;BME280;46113;50.130;8.526;2024-03-25T01:16:19;98162.78;;;5.18;87.52
27685;BME280;46113;50.130;8.526;2024-03-25T01:18:44;98163.50;;;5.21;87.74
27685;BME280;46113;50.130;8.526;2024-03-25T01:21:10;98159.81;;;5.28;87.59
27685;BME280;46113;50.130;8.526;2024-03-25T01:23:36;98163.41;;;5.24;87.47
27685;BME280;46113;50.130;8.526;2024-03-25T01:26:02;98162.88;;;5.14;87.64
27685;BME280;46113;50.130;8.526;2024-03-25T01:28:28;98157.69;;;5.13;88.05
27685;BME280;46113;50.130;8.526;2024-03-25T01:30:54;98162.19;;;5.08;88.56
27685;BME280;46113;50.130;8.526;2024-03-25T01:33:20;98172.66;;;5.06;88.68
27685;BME280;46113;50.130;8.526;2024-03-25T01:35:45;98163.84;;;5.10;89.55
27685;BME280;46113;50.130;8.526;2024-03-25T01:38:11;98165.66;;;5.08;89.76
27685;BME280;46113;50.130;8.526;2024-03-25T01:40:37;98162.41;;;5.01;89.03
27685;BME280;46113;50.130;8.526;2024-03-25T01:43:03;98161.88;;;4.92;88.29
27685;BME280;46113;50.130;8.526;2024-03-25T01:45:31;98166.00;;;4.97;86.90
27685;BME280;46113;50.130;8.526;2024-03-25T01:48:00;98160.44;;;5.10;87.04
27685;BME280;46113;50.130;8.526;2024-03-25T01:50:27;98158.31;;;5.21;87.36
27685;BME280;46113;50.130;8.526;2024-03-25T01:52:53;98152.38;;;5.18;88.59
27685;BME280;46113;50.130;8.526;2024-03-25T01:55:26;98162.94;;;5.11;88.25
27685;BME280;46113;50.130;8.526;2024-03-25T01:57:53;98164.69;;;5.12;89.05
27685;BME280;46113;50.130;8.526;2024-03-25T02:00:20;98162.38;;;5.03;88.34
27685;BME280;46113;50.130;8.526;2024-03-25T02:02:46;98168.34;;;5.05;87.28
27685;BME280;46113;50.130;8.526;2024-03-25T02:05:15;98164.69;;;5.12;87.69
27685;BME280;46113;50.130;8.526;2024-03-25T02:07:42;98170.72;;;5.13;88.62
27685;BME280;46113;50.130;8.526;2024-03-25T02:10:09;98171.66;;;5.10;88.24
27685;BME280;46113;50.130;8.526;2024-03-25T02:12:42;98168.94;;;5.15;88.32
27685;BME280;46113;50.130;8.526;2024-03-25T02:15:09;98165.06;;;5.27;88.45
27685;BME280;46113;50.130;8.526;2024-03-25T02:17:36;98160.06;;;5.21;87.98
27685;BME280;46113;50.130;8.526;2024-03-25T02:20:03;98154.16;;;5.15;87.86
27685;BME280;46113;50.130;8.526;2024-03-25T02:22:37;98159.25;;;5.19;88.02
27685;BME280;46113;50.130;8.526;2024-03-25T02:25:06;98165.91;;;5.27;87.04
27685;BME280;46113;50.130;8.526;2024-03-25T02:27:35;98165.50;;;5.13;86.05
27685;BME280;46113;50.130;8.526;2024-03-25T02:30:07;98162.34;;;5.30;86.15
27685;BME280;46113;50.130;8.526;2024-03-25T02:32:35;98164.34;;;5.22;86.67
27685;BME280;46113;50.130;8.526;2024-03-25T02:35:03;98171.72;;;5.36;87.03
27685;BME280;46113;50.130;8.526;2024-03-25T02:37:30;98162.06;;;5.39;87.86
27685;BME280;46113;50.130;8.526;2024-03-25T02:39:58;98166.41;;;5.39;86.96
27685;BME280;46113;50.130;8.526;2024-03-25T02:42:25;98170.38;;;5.24;87.52
27685;BME280;46113;50.130;8.526;2024-03-25T02:44:55;98171.75;;;5.34;87.49
27685;BME280;46113;50.130;8.526;2024-03-25T02:47:21;98160.78;;;5.24;87.12
27685;BME280;46113;50.130;8.526;2024-03-25T02:49:48;98166.41;;;5.12;86.46
27685;BME280;46113;50.130;8.526;2024-03-25T02:52:14;98166.94;;;5.22;86.79
27685;BME280;46113;50.130;8.526;2024-03-25T02:54:40;98167.84;;;5.21;86.09
27685;BME280;46113;50.130;8.526;2024-03-25T02:57:06;98166.06;;;5.23;85.90
27685;BME280;46113;50.130;8.526;2024-03-25T02:59:32;98170.31;;;5.25;86.96
27685;BME280;46113;50.130;8.526;2024-03-25T03:01:58;98170.72;;;5.40;87.12
27685;BME280;46113;50.130;8.526;2024-03-25T03:04:24;98173.41;;;5.37;87.05
27685;BME280;46113;50.130;8.526;2024-03-25T03:06:50;98176.81;;;5.39;87.89
27685;BME280;46113;50.130;8.526;2024-03-25T03:09:16;98172.28;;;5.44;87.35
27685;BME280;46113;50.130;8.526;2024-03-25T03:11:41;98170.56;;;5.45;87.53
27685;BME280;46113;50.130;8.526;2024-03-25T03:14:09;98169.50;;;5.23;84.62
27685;BME280;46113;50.130;8.526;2024-03-25T03:16:35;98175.38;;;5.30;85.44
27685;BME280;46113;50.130;8.526;2024-03-25T03:19:00;98170.81;;;5.37;85.87
27685;BME280;46113;50.130;8.526;2024-03-25T03:21:27;98179.41;;;5.39;86.00
27685;BME280;46113;50.130;8.526;2024-03-25T03:23:53;98170.84;;;5.35;84.44
27685;BME280;46113;50.130;8.526;2024-03-25T03:26:19;98176.81;;;5.39;84.59
27685;BME280;46113;50.130;8.526;2024-03-25T03:28:45;98178.13;;;5.25;84.06
27685;BME280;46113;50.130;8.526;2024-03-25T03:31:11;98172.03;;;5.26;84.09
27685;BME280;46113;50.130;8.526;2024-03-25T03:33:37;98175.38;;;5.30;83.84
27685;BME280;46113;50.130;8.526;2024-03-25T03:36:03;98183.88;;;5.35;84.21
27685;BME280;46113;50.130;8.526;2024-03-25T03:38:29;98181.84;;;5.16;84.27
27685;BME280;46113;50.130;8.526;2024-03-25T03:41:02;98181.31;;;5.34;84.42
27685;BME280;46113;50.130;8.526;2024-03-25T03:43:28;98187.72;;;5.23;85.12
27685;BME280;46113;50.130;8.526;2024-03-25T03:45:54;98182.88;;;5.12;83.62
27685;BME280;46113;50.130;8.526;2024-03-25T03:48:20;98199.72;;;5.27;83.17
27685;BME280;46113;50.130;8.526;2024-03-25T03:50:46;98196.88;;;5.08;82.73
27685;BME280;46113;50.130;8.526;2024-03-25T03:53:12;98191.94;;;5.27;83.76
27685;BME280;46113;50.130;8.526;2024-03-25T03:55:39;98194.28;;;5.35;83.98
27685;BME280;46113;50.130;8.526;2024-03-25T03:58:05;98202.19;;;5.32;84.65
27685;BME280;46113;50.130;8.526;2024-03-25T04:00:34;98196.72;;;5.13;82.91
27685;BME280;46113;50.130;8.526;2024-03-25T04:03:01;98193.88;;;5.21;83.55
27685;BME280;46113;50.130;8.526;2024-03-25T04:05:31;98198.28;;;5.19;82.72
27685;BME280;46113;50.130;8.526;2024-03-25T04:07:56;98198.78;;;5.30;83.13
27685;BME280;46113;50.130;8.526;2024-03-25T04:10:23;98193.63;;;5.28;82.36
27685;BME280;46113;50.130;8.526;2024-03-25T04:12:49;98199.38;;;5.11;82.14
27685;BME280;46113;50.130;8.526;2024-03-25T04:15:15;98198.69;;;5.33;81.69
27685;BME280;46113;50.130;8.526;2024-03-25T04:17:44;98199.28;;;5.41;83.22
27685;BME280;46113;50.130;8.526;2024-03-25T04:20:13;98199.19;;;5.18;82.64
27685;BME280;46113;50.130;8.526;2024-03-25T04:22:44;98202.25;;;5.30;83.06
27685;BME280;46113;50.130;8.526;2024-03-25T04:25:10;98198.31;;;5.17;82.09
27685;BME280;46113;50.130;8.526;2024-03-25T04:27:40;98198.56;;;5.36;82.92
27685;BME280;46113;50.130;8.526;2024-03-25T04:30:07;98206.38;;;5.36;83.61
27685;BME280;46113;50.130;8.526;2024-03-25T04:32:34;98201.63;;;5.22;81.83
27685;BME280;46113;50.130;8.526;2024-03-25T04:35:01;98205.63;;;5.33;82.64
27685;BME280;46113;50.130;8.526;2024-03-25T04:37:28;98207.41;;;5.32;83.14
27685;BME280;46113;50.130;8.526;2024-03-25T04:39:54;98203.69;;;5.12;82.38
27685;BME280;46113;50.130;8.526;2024-03-25T04:42:20;98198.63;;;5.08;82.96
27685;BME280;46113;50.130;8.526;2024-03-25T04:44:47;98199.53;;;5.07;82.86
27685;BME280;46113;50.130;8.526;2024-03-25T04:47:13;98199.44;;;5.10;82.62
27685;BME280;46113;50.130;8.526;2024-03-25T04:49:41;98204.41;;;5.18;83.57
27685;BME280;46113;50.130;8.526;2024-03-25T04:52:07;98205.34;;;5.15;83.69
27685;BME280;46113;50.130;8.526;2024-03-25T04:54:33;98205.28;;;4.88;83.22
27685;BME280;46113;50.130;8.526;2024-03-25T04:56:59;98208.66;;;4.92;83.78
27685;BME280;46113;50.130;8.526;2024-03-25T04:59:27;98212.72;;;4.72;83.36
27685;BME280;46113;50.130;8.526;2024-03-25T05:01:53;98217.25;;;4.94;83.30
27685;BME280;46113;50.130;8.526;2024-03-25T05:04:19;98213.09;;;4.88;83.04
27685;BME280;46113;50.130;8.526;2024-03-25T05:06:46;98225.53;;;5.07;82.94
27685;BME280;46113;50.130;8.526;2024-03-25T05:09:12;98223.31;;;4.94;83.44
27685;BME280;46113;50.130;8.526;2024-03-25T05:11:38;98225.56;;;5.05;83.08
27685;BME280;46113;50.130;8.526;2024-03-25T05:14:03;98234.19;;;5.07;82.69
27685;BME280;46113;50.130;8.526;2024-03-25T05:16:29;98233.94;;;4.86;82.20
27685;BME280;46113;50.130;8.526;2024-03-25T05:18:56;98233.53;;;5.00;82.58
27685;BME280;46113;50.130;8.526;2024-03-25T05:21:21;98227.09;;;5.12;82.84
27685;BME280;46113;50.130;8.526;2024-03-25T05:23:47;98223.41;;;5.20;83.25
27685;BME280;46113;50.130;8.526;2024-03-25T05:26:13;98219.31;;;5.12;83.17
27685;BME280;46113;50.130;8.526;2024-03-25T05:28:39;98226.25;;;5.12;83.21
27685;BME280;46113;50.130;8.526;2024-03-25T05:31:08;98213.03;;;5.18;83.04
27685;BME280;46113;50.130;8.526;2024-03-25T05:33:35;98220.56;;;4.99;82.22
27685;BME280;46113;50.130;8.526;2024-03-25T05:36:01;98217.66;;;5.10;83.17
27685;BME280;46113;50.130;8.526;2024-03-25T05:38:28;98219.63;;;5.01;82.56
27685;BME280;46113;50.130;8.526;2024-03-25T05:40:57;98227.91;;;5.14;82.66
27685;BME280;46113;50.130;8.526;2024-03-25T05:43:38;98238.31;;;5.14;83.12
27685;BME280;46113;50.130;8.526;2024-03-25T05:49:20;98233.81;;;5.20;84.72
27685;BME280;46113;50.130;8.526;2024-03-25T05:52:05;98248.06;;;5.06;83.28
27685;BME280;46113;50.130;8.526;2024-03-25T05:54:59;98253.63;;;5.24;84.21
27685;BME280;46113;50.130;8.526;2024-03-25T05:58:05;98251.84;;;5.24;82.96
27685;BME280;46113;50.130;8.526;2024-03-25T06:00:54;98258.66;;;5.28;84.80
27685;BME280;46113;50.130;8.526;2024-03-25T06:03:29;98256.03;;;5.30;84.81
27685;BME280;46113;50.130;8.526;2024-03-25T06:05:58;98271.34;;;5.39;84.70
27685;BME280;46113;50.130;8.526;2024-03-25T06:08:27;98267.31;;;5.30;84.93
27685;BME280;46113;50.130;8.526;2024-03-25T06:10:55;98272.16;;;5.41;83.96
27685;BME280;46113;50.130;8.526;2024-03-25T06:13:29;98270.13;;;5.51;84.33
27685;BME280;46113;50.130;8.526;2024-03-25T06:16:03;98269.00;;;5.59;84.50
27685;BME280;46113;50.130;8.526;2024-03-25T06:18:34;98263.00;;;5.56;83.49
27685;BME280;46113;50.130;8.526;2024-03-25T06:21:00;98265.31;;;5.66;83.43
27685;BME280;46113;50.130;8.526;2024-03-25T06:23:27;98265.13;;;5.45;81.39
27685;BME280;46113;50.130;8.526;2024-03-25T06:25:54;98268.34;;;5.52;81.12
27685;BME280;46113;50.130;8.526;2024-03-25T06:28:21;98259.34;;;5.89;82.25
27685;BME280;46113;50.130;8.526;2024-03-25T06:30:47;98261.97;;;5.88;81.67
27685;BME280;46113;50.130;8.526;2024-03-25T06:33:32;98271.34;;;5.93;80.77
27685;BME280;46113;50.130;8.526;2024-03-25T06:36:17;98267.94;;;5.91;80.42
27685;BME280;46113;50.130;8.526;2024-03-25T06:38:44;98272.84;;;6.01;79.88
27685;BME280;46113;50.130;8.526;2024-03-25T06:41:10;98278.81;;;6.04;80.41
27685;BME280;46113;50.130;8.526;2024-03-25T06:43:36;98273.75;;;6.25;80.22
27685;BME280;46113;50.130;8.526;2024-03-25T06:46:04;98278.50;;;6.14;78.15
27685;BME280;46113;50.130;8.526;2024-03-25T06:48:30;98283.50;;;6.20;78.78
27685;BME280;46113;50.130;8.526;2024-03-25T06:50:58;98285.03;;;6.26;78.17
27685;BME280;46113;50.130;8.526;2024-03-25T06:53:25;98291.94;;;6.27;78.27
27685;BME280;46113;50.130;8.526;2024-03-25T06:55:52;98301.06;;;6.40;77.69
27685;BME280;46113;50.130;8.526;2024-03-25T06:58:24;98294.66;;;6.49;77.29
27685;BME280;46113;50.130;8.526;2024-03-25T07:00:50;98294.78;;;6.20;75.02
27685;BME280;46113;50.130;8.526;2024-03-25T07:03:17;98295.78;;;6.42;75.82
27685;BME280;46113;50.130;8.526;2024-03-25T07:05:50;98294.97;;;6.40;74.79
27685;BME280;46113;50.130;8.526;2024-03-25T07:08:18;98301.50;;;6.52;75.79
27685;BME280;46113;50.130;8.526;2024-03-25T07:10:47;98298.47;;;6.64;75.39
27685;BME280;46113;50.130;8.526;2024-03-25T07:13:13;98311.03;;;6.53;74.90
27685;BME280;46113;50.130;8.526;2024-03-25T07:15:39;98305.72;;;6.56;74.42
27685;BME280;46113;50.130;8.526;2024-03-25T07:18:05;98312.28;;;6.17;75.40
27685;BME280;46113;50.130;8.526;2024-03-25T07:20:32;98316.38;;;6.24;75.63
27685;BME280;46113;50.130;8.526;2024-03-25T07:22:58;98308.59;;;6.48;76.58
27685;BME280;46113;50.130;8.526;2024-03-25T07:25:25;98313.28;;;6.38;77.60
27685;BME280;46113;50.130;8.526;2024-03-25T07:27:51;98311.47;;;6.40;76.46
27685;BME280;46113;50.130;8.526;2024-03-25T07:30:18;98315.78;;;6.41;76.92
27685;BME280;46113;50.130;8.526;2024-03-25T07:32:44;98323.66;;;6.65;76.03
27685;BME280;46113;50.130;8.526;2024-03-25T07:35:13;98318.38;;;6.91;77.60
27685;BME280;46113;50.130;8.526;2024-03-25T07:37:43;98326.13;;;6.68;76.05
27685;BME280;46113;50.130;8.526;2024-03-25T07:40:09;98319.94;;;6.71;75.02
27685;BME280;46113;50.130;8.526;2024-03-25T07:42:37;98320.34;;;6.84;75.12
27685;BME280;46113;50.130;8.526;2024-03-25T07:45:04;98320.75;;;6.73;73.75
27685;BME280;46113;50.130;8.526;2024-03-25T07:47:33;98327.50;;;7.02;75.26
27685;BME280;46113;50.130;8.526;2024-03-25T07:49:59;98325.34;;;6.90;72.81
27685;BME280;46113;50.130;8.526;2024-03-25T07:52:25;98318.34;;;7.14;73.70
27685;BME280;46113;50.130;8.526;2024-03-25T07:54:51;98331.38;;;7.38;73.42
27685;BME280;46113;50.130;8.526;2024-03-25T07:57:17;98323.34;;;7.21;70.35
27685;BME280;46113;50.130;8.526;2024-03-25T07:59:45;98319.09;;;7.63;71.41
27685;BME280;46113;50.130;8.526;2024-03-25T08:02:11;98329.47;;;7.87;70.71
27685;BME280;46113;50.130;8.526;2024-03-25T08:04:37;98323.91;;;7.74;67.42
27685;BME280;46113;50.130;8.526;2024-03-25T08:07:03;98323.91;;;8.17;70.19
27685;BME280;46113;50.130;8.526;2024-03-25T08:09:29;98326.75;;;8.11;68.45
27685;BME280;46113;50.130;8.526;2024-03-25T08:11:55;98321.00;;;8.23;66.88
27685;BME280;46113;50.130;8.526;2024-03-25T08:14:21;98316.00;;;8.60;67.44
27685;BME280;46113;50.130;8.526;2024-03-25T08:16:48;98319.84;;;8.91;66.40
27685;BME280;46113;50.130;8.526;2024-03-25T08:19:13;98316.31;;;8.31;64.18
27685;BME280;46113;50.130;8.526;2024-03-25T08:21:39;98319.16;;;8.25;65.86
27685;BME280;46113;50.130;8.526;2024-03-25T08:24:05;98315.34;;;8.55;64.21
27685;BME280;46113;50.130;8.526;2024-03-25T08:26:31;98321.59;;;8.09;64.07
27685;BME280;46113;50.130;8.526;2024-03-25T08:28:57;98325.25;;;8.05;64.57
27685;BME280;46113;50.130;8.526;2024-03-25T08:31:23;98319.41;;;7.77;61.24
27685;BME280;46113;50.130;8.526;2024-03-25T08:33:50;98319.00;;;8.30;63.76
27685;BME280;46113;50.130;8.526;2024-03-25T08:36:16;98315.78;;;8.02;59.28
27685;BME280;46113;50.130;8.526;2024-03-25T08:38:42;98323.34;;;7.88;58.81
27685;BME280;46113;50.130;8.526;2024-03-25T08:41:08;98314.97;;;8.00;57.02
27685;BME280;46113;50.130;8.526;2024-03-25T08:43:34;98315.97;;;8.18;55.42
27685;BME280;46113;50.130;8.526;2024-03-25T08:46:00;98316.06;;;8.58;57.51
27685;BME280;46113;50.130;8.526;2024-03-25T08:48:27;98321.72;;;8.47;53.56
27685;BME280;46113;50.130;8.526;2024-03-25T08:50:52;98312.25;;;8.45;54.86
27685;BME280;46113;50.130;8.526;2024-03-25T08:53:18;98323.03;;;8.58;54.42
27685;BME280;46113;50.130;8.526;2024-03-25T08:55:47;98308.91;;;8.41;53.85
27685;BME280;46113;50.130;8.526;2024-03-25T08:58:14;98314.94;;;8.64;55.38
27685;BME280;46113;50.130;8.526;2024-03-25T09:00:43;98311.31;;;8.46;53.06
27685;BME280;46113;50.130;8.526;2024-03-25T09:03:10;98300.53;;;8.33;55.10
27685;BME280;46113;50.130;8.526;2024-03-25T09:05:36;98295.44;;;8.91;52.91
27685;BME280;46113;50.130;8.526;2024-03-25T09:08:06;98303.47;;;8.46;55.85
27685;BME280;46113;50.130;8.526;2024-03-25T09:10:32;98299.59;;;9.14;56.19
27685;BME280;46113;50.130;8.526;2024-03-25T09:13:16;98303.22;;;9.31;56.42
27685;BME280;46113;50.130;8.526;2024-03-25T09:15:42;98305.56;;;9.37;55.47
27685;BME280;46113;50.130;8.526;2024-03-25T09:18:09;98312.84;;;9.30;55.81
27685;BME280;46113;50.130;8.526;2024-03-25T09:20:34;98305.13;;;9.27;52.83
27685;BME280;46113;50.130;8.526;2024-03-25T09:23:00;98305.06;;;8.29;52.67
27685;BME280;46113;50.130;8.526;2024-03-25T09:25:27;98304.22;;;8.70;53.44
27685;BME280;46113;50.130;8.526;2024-03-25T09:27:52;98306.63;;;8.33;53.51
27685;BME280;46113;50.130;8.526;2024-03-25T09:30:19;98306.25;;;8.43;55.31
27685;BME280;46113;50.130;8.526;2024-03-25T09:32:46;98304.66;;;8.39;52.84
27685;BME280;46113;50.130;8.526;2024-03-25T09:35:12;98305.91;;;8.51;52.20
27685;BME280;46113;50.130;8.526;2024-03-25T09:37:38;98302.28;;;8.74;51.89
27685;BME280;46113;50.130;8.526;2024-03-25T09:40:04;98302.09;;;8.98;50.33
27685;BME280;46113;50.130;8.526;2024-03-25T09:45:11;98299.25;;;9.22;51.23
27685;BME280;46113;50.130;8.526;2024-03-25T09:47:38;98296.38;;;8.90;52.24
27685;BME280;46113;50.130;8.526;2024-03-25T09:50:06;98298.81;;;9.31;53.47
27685;BME280;46113;50.130;8.526;2024-03-25T09:52:34;98288.53;;;9.46;53.13
27685;BME280;46113;50.130;8.526;2024-03-25T09:55:00;98291.47;;;9.57;51.58
27685;BME280;46113;50.130;8.526;2024-03-25T09:57:26;98290.16;;;9.48;50.94
27685;BME280;46113;50.130;8.526;2024-03-25T09:59:53;98280.00;;;9.60;52.36
27685;BME280;46113;50.130;8.526;2024-03-25T10:02:19;98276.91;;;9.88;51.28
27685;BME280;46113;50.130;8.526;2024-03-25T10:04:46;98271.03;;;9.83;49.64
27685;BME280;46113;50.130;8.526;2024-03-25T10:07:31;98267.66;;;9.99;50.48
27685;BME280;46113;50.130;8.526;2024-03-25T10:09:57;98259.81;;;10.32;50.85
27685;BME280;46113;50.130;8.526;2024-03-25T10:12:24;98249.06;;;10.37;51.84
27685;BME280;46113;50.130;8.526;2024-03-25T10:14:50;98250.38;;;9.95;50.84
27685;BME280;46113;50.130;8.526;2024-03-25T10:17:17;98256.66;;;10.77;50.37
27685;BME280;46113;50.130;8.526;2024-03-25T10:19:42;98258.00;;;11.17;50.82
